createdAt,value
2023-01-30T00:00:50.645Z,100734.22
2023-01-30T00:02:52.218Z,100711.00
2023-01-30T00:04:53.757Z,100710.16
2023-01-30T00:06:55.438Z,100725.81
2023-01-30T00:08:57.112Z,100715.72
2023-01-30T00:11:04.462Z,100713.00
2023-01-30T00:13:06.004Z,100701.41
2023-01-30T00:15:09.220Z,100696.00
2023-01-30T00:17:10.875Z,100696.84
2023-01-30T00:19:12.691Z,100703.28
2023-01-30T00:21:15.576Z,100680.91
2023-01-30T00:23:17.294Z,100687.44
2023-01-30T00:25:19.098Z,100675.84
2023-01-30T00:27:22.234Z,100675.66
2023-01-30T00:29:23.862Z,100670.63
2023-01-30T00:31:25.525Z,100674.81
2023-01-30T00:33:27.841Z,100674.16
2023-01-30T00:35:29.944Z,100659.69
2023-01-30T00:37:31.697Z,100663.41
2023-01-30T00:39:33.272Z,100671.28
2023-01-30T00:41:35.815Z,100660.84
2023-01-30T00:43:38.905Z,100652.63
2023-01-30T00:45:42.823Z,100659.69
2023-01-30T00:47:44.518Z,100653.63
2023-01-30T00:49:46.271Z,100635.47
2023-01-30T00:51:47.858Z,100639.81
2023-01-30T00:53:49.402Z,100634.63
2023-01-30T00:55:51.757Z,100623.84
2023-01-30T00:57:53.344Z,100628.22
2023-01-30T00:59:56.297Z,100623.50
2023-01-30T01:01:58.264Z,100617.13
2023-01-30T01:03:59.993Z,100606.16
2023-01-30T01:06:01.874Z,100596.25
2023-01-30T01:08:04.133Z,100595.25
2023-01-30T01:10:06.958Z,100577.41
2023-01-30T01:12:09.281Z,100575.34
2023-01-30T01:14:10.826Z,100560.06
2023-01-30T01:16:13.908Z,100553.50
2023-01-30T01:18:15.591Z,100552.66
2023-01-30T01:20:18.534Z,100535.50
2023-01-30T01:22:20.371Z,100511.28
2023-01-30T01:24:22.086Z,100533.47
2023-01-30T01:26:23.800Z,100518.16
2023-01-30T01:28:25.584Z,100519.16
2023-01-30T01:30:27.354Z,100520.66
2023-01-30T01:32:30.368Z,100512.56
2023-01-30T01:34:31.898Z,100511.06
2023-01-30T01:36:52.786Z,100512.78
2023-01-30T01:38:55.129Z,100501.66
2023-01-30T01:40:56.861Z,100504.19
2023-01-30T01:42:58.653Z,100504.19
2023-01-30T01:45:05.190Z,100506.69
2023-01-30T01:47:11.227Z,100511.41
2023-01-30T01:49:20.995Z,100504.66
2023-01-30T01:51:30.037Z,100502.97
2023-01-30T01:53:36.276Z,100499.28
2023-01-30T01:55:40.524Z,100484.78
2023-01-30T01:57:47.083Z,100478.38
2023-01-30T01:59:53.003Z,100465.59
2023-01-30T02:01:58.589Z,100464.91
2023-01-30T02:04:04.419Z,100461.38
2023-01-30T02:06:09.144Z,100461.88
2023-01-30T02:08:13.870Z,100462.56
2023-01-30T02:10:19.826Z,100454.47
2023-01-30T02:12:21.939Z,100464.88
2023-01-30T02:14:24.603Z,100442.66
2023-01-30T02:16:26.761Z,100442.50
2023-01-30T02:18:30.973Z,100435.09
2023-01-30T02:20:57.418Z,100431.38
2023-01-30T02:23:31.898Z,100421.06
2023-01-30T02:26:02.325Z,100422.13
2023-01-30T02:28:30.269Z,100412.00
2023-01-30T02:31:17.037Z,100401.84
2023-01-30T02:33:28.610Z,100388.59
2023-01-30T02:35:37.203Z,100394.81
2023-01-30T02:37:51.119Z,100400.00
2023-01-30T02:40:15.972Z,100393.63
2023-01-30T02:42:27.391Z,100385.53
2023-01-30T02:44:38.738Z,100393.63
2023-01-30T02:46:51.016Z,100383.69
2023-01-30T02:48:57.759Z,100377.28
2023-01-30T02:51:05.622Z,100373.56
2023-01-30T02:53:09.625Z,100351.00
2023-01-30T02:55:19.210Z,100365.31
2023-01-30T02:57:23.297Z,100361.59
2023-01-30T02:59:30.625Z,100346.44
2023-01-30T03:01:54.328Z,100344.41
2023-01-30T03:04:11.236Z,100346.09
2023-01-30T03:06:29.790Z,100341.53
2023-01-30T03:08:40.062Z,100340.69
2023-01-30T03:10:50.655Z,100330.94
2023-01-30T03:12:59.299Z,100327.44
2023-01-30T03:15:05.689Z,100330.13
2023-01-30T03:17:11.257Z,100321.66
2023-01-30T03:19:13.772Z,100310.91
2023-01-30T03:21:16.152Z,100309.03
2023-01-30T03:23:17.691Z,100306.34
2023-01-30T03:25:21.851Z,100299.91
2023-01-30T03:27:23.994Z,100295.38
2023-01-30T03:29:25.566Z,100297.06
2023-01-30T03:31:27.214Z,100304.13
2023-01-30T03:33:30.267Z,100286.91
2023-01-30T03:35:31.823Z,100285.91
2023-01-30T03:37:33.573Z,100282.22
2023-01-30T03:39:35.283Z,100278.50
2023-01-30T03:41:36.835Z,100265.03
2023-01-30T03:43:38.403Z,100271.91
2023-01-30T03:45:40.148Z,100272.53
2023-01-30T03:47:41.942Z,100267.16
2023-01-30T03:49:44.919Z,100267.16
2023-01-30T03:51:46.492Z,100273.38
2023-01-30T03:53:48.277Z,100272.00
2023-01-30T03:55:50.184Z,100260.22
2023-01-30T03:57:55.597Z,100244.88
2023-01-30T03:59:59.956Z,100261.06
2023-01-30T04:02:01.559Z,100253.59
2023-01-30T04:04:03.385Z,100240.97
2023-01-30T04:06:06.684Z,100237.91
2023-01-30T04:08:08.431Z,100238.56
2023-01-30T04:10:11.193Z,100233.66
2023-01-30T04:12:13.506Z,100238.00
2023-01-30T04:14:15.178Z,100228.72
2023-01-30T04:16:21.085Z,100228.34
2023-01-30T04:18:22.933Z,100232.72
2023-01-30T04:20:24.762Z,100219.06
2023-01-30T04:22:27.900Z,100219.72
2023-01-30T04:24:29.566Z,100205.41
2023-01-30T04:26:31.331Z,100210.78
2023-01-30T04:28:33.396Z,100206.88
2023-01-30T04:30:35.033Z,100211.25
2023-01-30T04:32:36.747Z,100203.16
2023-01-30T04:34:38.300Z,100196.56
2023-01-30T04:36:40.052Z,100185.59
2023-01-30T04:38:43.183Z,100187.44
2023-01-30T04:40:48.499Z,100168.38
2023-01-30T04:42:50.090Z,100193.31
2023-01-30T04:44:51.671Z,100187.91
2023-01-30T04:46:54.222Z,100189.59
2023-01-30T04:48:55.795Z,100175.91
2023-01-30T04:50:57.805Z,100180.66
2023-01-30T04:52:59.402Z,100176.56
2023-01-30T04:55:02.379Z,100173.03
2023-01-30T04:57:04.167Z,100175.34
2023-01-30T04:59:06.185Z,100186.97
2023-01-30T05:01:16.513Z,100174.13
2023-01-30T05:03:18.773Z,100162.50
2023-01-30T05:05:20.813Z,100163.16
2023-01-30T05:07:22.479Z,100158.63
2023-01-30T05:09:24.001Z,100155.72
2023-01-30T05:11:29.342Z,100159.06
2023-01-30T05:13:30.967Z,100160.09
2023-01-30T05:15:33.350Z,100160.75
2023-01-30T05:17:35.434Z,100159.53
2023-01-30T05:19:37.000Z,100150.44
2023-01-30T05:21:38.774Z,100158.31
2023-01-30T05:23:40.472Z,100150.88
2023-01-30T05:25:42.439Z,100147.34
2023-01-30T05:27:45.570Z,100148.81
2023-01-30T05:29:47.254Z,100137.84
2023-01-30T05:31:48.828Z,100133.94
2023-01-30T05:33:51.958Z,100112.34
2023-01-30T05:35:53.527Z,100121.91
2023-01-30T05:37:55.690Z,100129.38
2023-01-30T05:39:57.284Z,100136.25
2023-01-30T05:41:58.842Z,100149.56
2023-01-30T05:44:01.995Z,100151.19
2023-01-30T05:46:05.961Z,100146.66
2023-01-30T05:48:07.509Z,100142.09
2023-01-30T05:50:11.051Z,100131.13
2023-01-30T05:52:12.705Z,100133.81
2023-01-30T05:54:14.972Z,100142.53
2023-01-30T05:56:17.318Z,100133.81
2023-01-30T05:58:18.970Z,100129.88
2023-01-30T06:00:22.565Z,100128.03
2023-01-30T06:02:24.241Z,100127.00
2023-01-30T06:04:25.866Z,100133.03
2023-01-30T06:06:27.444Z,100127.66
2023-01-30T06:08:29.563Z,100123.09
2023-01-30T06:10:31.088Z,100123.72
2023-01-30T06:12:32.914Z,100122.91
2023-01-30T06:14:34.438Z,100129.78
2023-01-30T06:16:37.597Z,100136.00
2023-01-30T06:18:39.244Z,100142.44
2023-01-30T06:20:40.891Z,100154.06
2023-01-30T06:22:42.751Z,100145.97
2023-01-30T06:24:44.327Z,100153.88
2023-01-30T06:26:46.188Z,100153.88
2023-01-30T06:28:47.860Z,100145.97
2023-01-30T06:30:49.887Z,100151.19
2023-01-30T06:32:53.045Z,100148.28
2023-01-30T06:34:54.565Z,100155.53
2023-01-30T06:36:56.360Z,100150.97
2023-01-30T06:38:58.597Z,100160.75
2023-01-30T06:41:00.181Z,100155.97
2023-01-30T06:43:02.114Z,100158.50
2023-01-30T06:45:04.441Z,100155.81
2023-01-30T06:47:05.966Z,100160.19
2023-01-30T06:49:09.188Z,100156.66
2023-01-30T06:51:10.812Z,100159.97
2023-01-30T06:53:12.401Z,100159.78
2023-01-30T06:55:17.211Z,100159.78
2023-01-30T06:57:19.172Z,100158.13
2023-01-30T06:59:20.856Z,100158.78
2023-01-30T07:01:22.456Z,100157.72
2023-01-30T07:03:24.439Z,100156.72
2023-01-30T07:05:27.862Z,100160.25
2023-01-30T07:07:29.698Z,100168.13
2023-01-30T07:09:31.226Z,100166.28
2023-01-30T07:11:32.864Z,100170.84
2023-01-30T07:13:34.655Z,100171.50
2023-01-30T07:15:36.190Z,100160.88
2023-01-30T07:17:40.338Z,100168.78
2023-01-30T07:19:42.361Z,100165.25
2023-01-30T07:21:45.407Z,100171.28
2023-01-30T07:23:47.133Z,100163.19
2023-01-30T07:25:48.737Z,100156.78
2023-01-30T07:27:51.086Z,100155.94
2023-01-30T07:29:53.413Z,100161.31
2023-01-30T07:31:55.008Z,100154.06
2023-01-30T07:33:57.023Z,100157.59
2023-01-30T07:35:58.643Z,100162.16
2023-01-30T07:38:01.760Z,100159.28
2023-01-30T07:40:04.034Z,100163.84
2023-01-30T07:42:06.351Z,100158.28
2023-01-30T07:44:08.245Z,100152.88
2023-01-30T07:46:10.059Z,100155.34
2023-01-30T07:48:14.102Z,100152.66
2023-01-30T07:50:16.941Z,100150.81
2023-01-30T07:52:18.787Z,100161.41
2023-01-30T07:54:21.904Z,100156.81
2023-01-30T07:56:24.127Z,100163.06
2023-01-30T07:58:25.676Z,100155.81
2023-01-30T08:00:27.445Z,100145.00
2023-01-30T08:02:29.015Z,100154.78
2023-01-30T08:04:30.578Z,100146.47
2023-01-30T08:06:32.159Z,100154.25
2023-01-30T08:08:33.816Z,100149.88
2023-01-30T08:10:36.840Z,100151.34
2023-01-30T08:12:39.496Z,100158.41
2023-01-30T08:14:41.070Z,100160.94
2023-01-30T08:16:42.856Z,100157.41
2023-01-30T08:18:44.867Z,100164.66
2023-01-30T08:20:47.480Z,100164.44
2023-01-30T08:22:49.044Z,100148.25
2023-01-30T08:24:50.633Z,100148.91
2023-01-30T08:26:53.588Z,100152.22
2023-01-30T08:28:55.173Z,100143.28
2023-01-30T08:30:57.830Z,100144.13
2023-01-30T08:32:59.608Z,100148.69
2023-01-30T08:35:01.131Z,100162.00
2023-01-30T08:37:03.294Z,100149.13
2023-01-30T08:39:05.685Z,100152.50
2023-01-30T08:41:07.589Z,100154.19
2023-01-30T08:43:10.929Z,100146.91
2023-01-30T08:45:12.799Z,100145.88
2023-01-30T08:47:14.680Z,100143.44
2023-01-30T08:49:18.483Z,100139.50
2023-01-30T08:51:20.234Z,100128.28
2023-01-30T08:53:22.464Z,100129.78
2023-01-30T08:55:24.013Z,100124.25
2023-01-30T08:57:25.574Z,100134.50
2023-01-30T08:59:28.551Z,100129.44
2023-01-30T09:01:30.313Z,100137.44
2023-01-30T09:03:32.127Z,100136.88
2023-01-30T09:05:33.887Z,100140.91
2023-01-30T09:07:35.869Z,100145.50
2023-01-30T09:09:37.432Z,100147.63
2023-01-30T09:11:38.943Z,100148.88
2023-01-30T09:13:40.656Z,100161.13
2023-01-30T09:15:44.291Z,100158.16
2023-01-30T09:17:46.076Z,100161.69
2023-01-30T09:19:48.003Z,100160.81
2023-01-30T09:21:51.884Z,100155.38
2023-01-30T09:23:55.979Z,100155.72
2023-01-30T09:25:57.518Z,100164.63
2023-01-30T09:27:59.212Z,100166.63
2023-01-30T09:30:00.872Z,100169.91
2023-01-30T09:32:04.093Z,100158.88
2023-01-30T09:34:05.996Z,100169.81
2023-01-30T09:36:08.701Z,100161.06
2023-01-30T09:38:10.206Z,100169.56
2023-01-30T09:40:16.081Z,100164.38
2023-01-30T09:42:39.751Z,100156.84
2023-01-30T09:45:02.223Z,100155.97
2023-01-30T09:47:10.925Z,100166.09
2023-01-30T09:49:27.878Z,100162.59
2023-01-30T09:51:46.899Z,100157.56
2023-01-30T09:54:12.531Z,100158.97
2023-01-30T09:56:17.856Z,100153.97
2023-01-30T09:58:22.308Z,100160.41
2023-01-30T10:00:32.279Z,100154.94
2023-01-30T10:02:50.313Z,100150.38
2023-01-30T10:05:00.987Z,100146.59
2023-01-30T10:07:16.486Z,100166.53
2023-01-30T10:09:31.043Z,100161.56
2023-01-30T10:11:51.878Z,100156.88
2023-01-30T10:14:20.615Z,100153.66
2023-01-30T10:16:27.376Z,100173.13
2023-01-30T10:18:51.777Z,100171.47
2023-01-30T10:21:11.539Z,100176.22
2023-01-30T10:23:30.547Z,100159.75
2023-01-30T10:25:37.715Z,100168.69
2023-01-30T10:27:49.075Z,100166.41
2023-01-30T10:29:54.968Z,100163.44
2023-01-30T10:32:02.595Z,100152.63
2023-01-30T10:34:12.437Z,100145.75
2023-01-30T10:36:18.518Z,100137.84
2023-01-30T10:38:27.758Z,100125.56
2023-01-30T10:40:37.440Z,100116.25
2023-01-30T10:42:46.940Z,100125.44
2023-01-30T10:44:49.154Z,100118.53
2023-01-30T10:47:47.062Z,100124.03
2023-01-30T10:49:53.915Z,100099.47
2023-01-30T10:52:02.888Z,100121.34
2023-01-30T10:54:13.045Z,100106.66
2023-01-30T10:56:20.794Z,100115.66
2023-01-30T10:58:30.931Z,100109.25
2023-01-30T11:00:39.375Z,100099.06
2023-01-30T11:02:53.503Z,100110.31
2023-01-30T11:05:03.543Z,100098.66
2023-01-30T11:07:06.146Z,100097.38
2023-01-30T11:09:09.049Z,100100.94
2023-01-30T11:11:26.423Z,100105.72
2023-01-30T11:13:31.348Z,100105.72
2023-01-30T11:15:40.498Z,100098.88
2023-01-30T11:17:45.313Z,100102.03
2023-01-30T11:19:54.923Z,100089.53
2023-01-30T11:22:05.881Z,100094.09
2023-01-30T11:24:14.395Z,100081.22
2023-01-30T11:26:21.472Z,100084.97
2023-01-30T11:28:24.557Z,100071.44
2023-01-30T11:30:29.076Z,100072.47
2023-01-30T11:32:30.694Z,100072.06
2023-01-30T11:34:32.793Z,100064.19
2023-01-30T11:36:36.342Z,100066.03
2023-01-30T11:38:57.301Z,100064.78
2023-01-30T11:41:04.936Z,100073.75
2023-01-30T11:43:12.387Z,100057.53
2023-01-30T11:45:18.016Z,100065.00
2023-01-30T11:47:24.304Z,100046.09
2023-01-30T11:49:46.889Z,100043.19
2023-01-30T11:51:54.220Z,100040.69
2023-01-30T11:54:02.423Z,100037.59
2023-01-30T11:56:10.113Z,100033.84
2023-01-30T11:58:14.668Z,100034.47
2023-01-30T12:00:20.812Z,100029.06
2023-01-30T12:02:26.207Z,100021.56
2023-01-30T12:04:28.737Z,100016.81
2023-01-30T12:06:32.126Z,100009.56
2023-01-30T12:08:42.369Z,100001.22
2023-01-30T12:10:48.480Z,100009.75
2023-01-30T12:12:52.621Z,99997.06
2023-01-30T12:15:03.204Z,100002.47
2023-01-30T12:17:14.048Z,99995.84
2023-01-30T12:19:29.516Z,99979.22
2023-01-30T12:21:39.497Z,99981.94
2023-01-30T12:23:46.577Z,99985.03
2023-01-30T12:25:58.540Z,100000.84
2023-01-30T12:28:03.528Z,99992.75
2023-01-30T12:30:20.529Z,99971.97
2023-01-30T12:32:27.231Z,99981.72
2023-01-30T12:34:28.888Z,99977.38
2023-01-30T12:36:42.957Z,99989.63
2023-01-30T12:38:56.370Z,100005.19
2023-01-30T12:41:12.474Z,99987.75
2023-01-30T12:43:29.908Z,99992.16
2023-01-30T12:45:34.794Z,99998.59
2023-01-30T12:47:55.250Z,99988.97
2023-01-30T12:50:15.761Z,100006.25
2023-01-30T12:52:38.942Z,100013.53
2023-01-30T12:54:52.104Z,100011.66
2023-01-30T12:57:09.187Z,100016.44
2023-01-30T12:59:18.808Z,100012.28
2023-01-30T13:01:27.671Z,100017.88
2023-01-30T13:03:41.537Z,100013.31
2023-01-30T13:05:51.354Z,100002.91
2023-01-30T13:08:13.005Z,100008.31
2023-01-30T13:10:24.664Z,100005.41
2023-01-30T13:12:37.875Z,100000.19
2023-01-30T13:14:48.461Z,100003.91
2023-01-30T13:17:05.155Z,99998.75
2023-01-30T13:19:15.160Z,100006.84
2023-01-30T13:21:21.112Z,100012.03
2023-01-30T13:23:33.039Z,100019.31
2023-01-30T13:25:43.043Z,100019.13
2023-01-30T13:27:56.469Z,100017.66
2023-01-30T13:30:00.240Z,100033.03
2023-01-30T13:32:05.723Z,100034.91
2023-01-30T13:34:11.847Z,100019.94
2023-01-30T13:36:17.859Z,100050.06
2023-01-30T13:38:24.677Z,100041.56
2023-01-30T13:40:30.821Z,100037.59
2023-01-30T13:42:38.657Z,100036.31
2023-01-30T13:44:44.779Z,100049.00
2023-01-30T13:46:48.098Z,100052.28
2023-01-30T13:49:01.226Z,100062.25
2023-01-30T13:51:18.166Z,100054.56
2023-01-30T13:53:28.968Z,100053.09
2023-01-30T13:55:40.648Z,100065.31
2023-01-30T13:57:48.164Z,100068.44
2023-01-30T14:00:16.913Z,100069.03
2023-01-30T14:02:20.955Z,100069.81
2023-01-30T14:04:46.057Z,100059.44
2023-01-30T14:06:48.066Z,100061.72
2023-01-30T14:08:55.141Z,100065.63
2023-01-30T14:10:57.913Z,100065.84
2023-01-30T14:13:05.953Z,100071.25
2023-01-30T14:15:27.220Z,100054.19
2023-01-30T14:17:30.651Z,100057.09
2023-01-30T14:19:39.675Z,100062.50
2023-01-30T14:21:55.067Z,100057.94
2023-01-30T14:24:00.835Z,100073.50
2023-01-30T14:26:03.337Z,100072.66
2023-01-30T14:28:44.034Z,100073.28
2023-01-30T14:30:49.311Z,100076.00
2023-01-30T14:32:55.786Z,100072.44
2023-01-30T14:35:20.830Z,100064.34
2023-01-30T14:37:45.383Z,100093.44
2023-01-30T14:39:53.339Z,100094.91
2023-01-30T14:42:19.395Z,100109.91
2023-01-30T14:44:54.480Z,100105.72
2023-01-30T14:46:58.549Z,100113.63
2023-01-30T14:49:04.809Z,100104.88
2023-01-30T14:51:19.831Z,100114.47
2023-01-30T14:53:21.888Z,100115.88
2023-01-30T14:55:26.787Z,100135.41
2023-01-30T14:57:30.091Z,100137.94
2023-01-30T14:59:35.612Z,100143.75
2023-01-30T15:02:21.209Z,100139.63
2023-01-30T15:04:23.240Z,100140.81
2023-01-30T15:06:24.854Z,100155.16
2023-01-30T15:08:27.309Z,100143.53
2023-01-30T15:10:46.660Z,100159.38
2023-01-30T15:13:28.032Z,100162.06
2023-01-30T15:15:40.903Z,100160.19
2023-01-30T15:18:06.921Z,100167.25
2023-01-30T15:20:20.902Z,100170.81
2023-01-30T15:22:31.849Z,100146.88
2023-01-30T15:25:12.897Z,100167.25
2023-01-30T15:27:23.154Z,100153.97
2023-01-30T15:30:04.256Z,100157.03
2023-01-30T15:32:22.809Z,100159.09
2023-01-30T15:34:27.939Z,100140.38
2023-01-30T15:36:34.034Z,100147.03
2023-01-30T15:38:35.643Z,100146.41
2023-01-30T15:40:40.538Z,100138.28
2023-01-30T15:42:44.796Z,100136.59
2023-01-30T15:44:58.300Z,100148.25
2023-01-30T15:47:24.553Z,100158.22
2023-01-30T15:49:46.171Z,100170.22
2023-01-30T15:51:48.072Z,100183.94
2023-01-30T15:53:49.903Z,100168.75
2023-01-30T15:55:53.514Z,100187.03
2023-01-30T15:57:59.404Z,100182.25
2023-01-30T16:00:02.187Z,100192.44
2023-01-30T16:02:08.297Z,100202.41
2023-01-30T16:04:26.255Z,100206.56
2023-01-30T16:06:34.665Z,100219.88
2023-01-30T16:08:36.972Z,100219.22
2023-01-30T16:10:45.407Z,100220.06
2023-01-30T16:12:48.465Z,100221.75
2023-01-30T16:14:50.461Z,100221.75
2023-01-30T16:16:57.526Z,100237.94
2023-01-30T16:19:02.142Z,100225.69
2023-01-30T16:21:07.739Z,100230.88
2023-01-30T16:23:21.045Z,100232.56
2023-01-30T16:25:26.250Z,100236.94
2023-01-30T16:27:31.911Z,100242.50
2023-01-30T16:29:37.658Z,100242.34
2023-01-30T16:31:41.107Z,100253.13
2023-01-30T16:33:43.036Z,100256.66
2023-01-30T16:35:45.918Z,100269.13
2023-01-30T16:37:47.564Z,100272.66
2023-01-30T16:40:04.369Z,100276.84
2023-01-30T16:42:22.826Z,100284.78
2023-01-30T16:44:27.498Z,100287.84
2023-01-30T16:46:50.668Z,100294.72
2023-01-30T16:48:52.230Z,100302.19
2023-01-30T16:51:12.445Z,100296.59
2023-01-30T16:53:15.387Z,100299.28
2023-01-30T16:55:22.983Z,100318.03
2023-01-30T16:57:32.153Z,100305.16
2023-01-30T16:59:35.477Z,100307.00
2023-01-30T17:01:40.411Z,100322.19
2023-01-30T17:03:44.110Z,100336.38
2023-01-30T17:05:48.539Z,100323.66
2023-01-30T17:07:52.383Z,100324.34
2023-01-30T17:09:54.065Z,100330.56
2023-01-30T17:11:56.993Z,100361.97
2023-01-30T17:14:18.679Z,100340.16
2023-01-30T17:16:32.409Z,100354.31
2023-01-30T17:18:34.005Z,100353.28
2023-01-30T17:20:42.034Z,100358.88
2023-01-30T17:22:47.069Z,100353.09
2023-01-30T17:24:48.539Z,100355.59
2023-01-30T17:26:52.675Z,100359.13
2023-01-30T17:28:56.150Z,100361.66
2023-01-30T17:30:57.859Z,100368.06
2023-01-30T17:32:59.621Z,100371.63
2023-01-30T17:35:01.202Z,100391.84
2023-01-30T17:37:03.031Z,100387.28
2023-01-30T17:39:11.471Z,100410.56
2023-01-30T17:41:19.523Z,100400.56
2023-01-30T17:43:21.139Z,100411.19
2023-01-30T17:45:27.477Z,100401.22
2023-01-30T17:47:29.290Z,100409.53
2023-01-30T17:49:30.894Z,100408.69
2023-01-30T17:51:33.134Z,100425.09
2023-01-30T17:53:35.004Z,100439.84
2023-01-30T17:55:36.622Z,100445.25
2023-01-30T17:57:38.659Z,100442.88
2023-01-30T17:59:40.165Z,100453.53
2023-01-30T18:01:44.441Z,100464.72
2023-01-30T18:03:46.200Z,100467.78
2023-01-30T18:05:47.733Z,100456.69
2023-01-30T18:07:49.460Z,100479.53
2023-01-30T18:09:51.514Z,100480.19
2023-01-30T18:11:53.318Z,100483.44
2023-01-30T18:13:54.895Z,100487.34
2023-01-30T18:15:58.712Z,100508.97
2023-01-30T18:18:01.885Z,100512.03
2023-01-30T18:20:03.551Z,100516.97
2023-01-30T18:22:05.679Z,100505.50
2023-01-30T18:24:08.197Z,100519.22
2023-01-30T18:26:11.309Z,100532.50
2023-01-30T18:28:12.886Z,100539.59
2023-01-30T18:30:17.601Z,100547.88
2023-01-30T18:32:19.607Z,100539.97
2023-01-30T18:34:23.003Z,100554.50
2023-01-30T18:36:24.954Z,100551.63
2023-01-30T18:38:26.560Z,100555.50
2023-01-30T18:40:28.167Z,100563.63
2023-01-30T18:42:31.788Z,100584.41
2023-01-30T18:44:33.613Z,100575.47
2023-01-30T18:46:35.250Z,100588.13
2023-01-30T18:48:37.103Z,100578.34
2023-01-30T18:50:40.004Z,100591.00
2023-01-30T18:52:41.548Z,100593.06
2023-01-30T18:54:43.150Z,100604.03
2023-01-30T18:56:44.872Z,100602.53
2023-01-30T18:58:46.751Z,100605.41
2023-01-30T19:00:48.369Z,100608.31
2023-01-30T19:02:53.176Z,100609.97
2023-01-30T19:04:54.936Z,100610.34
2023-01-30T19:06:58.059Z,100604.28
2023-01-30T19:09:00.022Z,100618.94
2023-01-30T19:11:05.332Z,100627.25
2023-01-30T19:13:07.462Z,100635.34
2023-01-30T19:15:09.956Z,100640.91
2023-01-30T19:17:11.599Z,100641.09
2023-01-30T19:19:13.469Z,100655.63
2023-01-30T19:21:15.190Z,100654.13
2023-01-30T19:23:18.106Z,100659.69
2023-01-30T19:25:19.986Z,100675.03
2023-01-30T19:27:21.505Z,100667.19
2023-01-30T19:29:23.025Z,100678.84
2023-01-30T19:31:25.384Z,100666.34
2023-01-30T19:33:26.961Z,100671.25
2023-01-30T19:35:28.496Z,100692.53
2023-01-30T19:37:30.327Z,100707.72
2023-01-30T19:39:33.453Z,100684.63
2023-01-30T19:41:36.313Z,100712.28
2023-01-30T19:43:38.634Z,100707.88
2023-01-30T19:45:41.210Z,100710.78
2023-01-30T19:47:42.929Z,100710.94
2023-01-30T19:49:44.556Z,100722.25
2023-01-30T19:51:46.414Z,100722.25
2023-01-30T19:53:52.058Z,100726.66
2023-01-30T19:55:55.573Z,100737.63
2023-01-30T19:57:57.134Z,100744.03
2023-01-30T19:59:59.484Z,100749.59
2023-01-30T20:02:01.817Z,100747.78
2023-01-30T20:04:04.473Z,100743.72
2023-01-30T20:06:08.108Z,100758.06
2023-01-30T20:08:21.809Z,100763.63
2023-01-30T20:10:31.222Z,100765.31
2023-01-30T20:12:34.198Z,100768.34
2023-01-30T20:14:35.842Z,100757.72
2023-01-30T20:16:38.115Z,100767.88
2023-01-30T20:18:40.956Z,100771.56
2023-01-30T20:20:42.583Z,100775.31
2023-01-30T20:22:44.267Z,100772.63
2023-01-30T20:24:46.008Z,100784.28
2023-01-30T20:26:48.632Z,100792.84
2023-01-30T20:28:52.246Z,100784.94
2023-01-30T20:30:53.904Z,100801.09
2023-01-30T20:32:55.671Z,100799.41
2023-01-30T20:34:57.169Z,100810.41
2023-01-30T20:36:58.910Z,100798.75
2023-01-30T20:39:01.698Z,100804.31
2023-01-30T20:41:05.220Z,100807.38
2023-01-30T20:43:07.145Z,100804.88
2023-01-30T20:45:11.441Z,100809.56
2023-01-30T20:47:13.087Z,100822.22
2023-01-30T20:49:16.725Z,100814.47
2023-01-30T20:51:19.985Z,100815.81
2023-01-30T20:53:21.594Z,100835.72
2023-01-30T20:55:23.164Z,100827.97
2023-01-30T20:57:24.779Z,100827.13
2023-01-30T20:59:28.518Z,100841.13
2023-01-30T21:01:32.477Z,100848.38
2023-01-30T21:03:34.184Z,100852.22
2023-01-30T21:05:35.743Z,100863.72
2023-01-30T21:07:37.299Z,100858.47
2023-01-30T21:09:39.402Z,100871.13
2023-01-30T21:11:41.154Z,100873.16
2023-01-30T21:13:43.052Z,100871.63
2023-01-30T21:15:44.648Z,100878.19
2023-01-30T21:17:47.767Z,100888.97
2023-01-30T21:19:49.544Z,100901.13
2023-01-30T21:21:52.839Z,100897.94
2023-01-30T21:23:57.110Z,100902.13
2023-01-30T21:26:04.190Z,100902.97
2023-01-30T21:28:05.935Z,100899.59
2023-01-30T21:30:08.955Z,100901.63
2023-01-30T21:32:10.587Z,100909.00
2023-01-30T21:34:13.857Z,100912.75
2023-01-30T21:36:17.216Z,100904.66
2023-01-30T21:38:19.516Z,100919.13
2023-01-30T21:40:21.031Z,100915.59
2023-01-30T21:42:22.755Z,100925.72
2023-01-30T21:44:26.369Z,100932.25
2023-01-30T21:46:28.968Z,100935.78
2023-01-30T21:48:30.707Z,100943.03
2023-01-30T21:50:34.245Z,100953.31
2023-01-30T21:52:35.778Z,100954.31
2023-01-30T21:54:39.110Z,100955.47
2023-01-30T21:56:41.296Z,100951.28
2023-01-30T21:58:42.940Z,100955.81
2023-01-30T22:00:44.612Z,100955.97
2023-01-30T22:02:49.580Z,100950.78
2023-01-30T22:04:51.285Z,100964.56
2023-01-30T22:06:54.577Z,100974.66
2023-01-30T22:08:56.817Z,100981.88
2023-01-30T22:11:06.833Z,100989.31
2023-01-30T22:13:08.736Z,100994.84
2023-01-30T22:15:10.781Z,101003.09
2023-01-30T22:17:12.648Z,101003.44
2023-01-30T22:19:14.514Z,101014.22
2023-01-30T22:21:18.676Z,101008.13
2023-01-30T22:23:21.901Z,101026.97
2023-01-30T22:25:24.261Z,101010.97
2023-01-30T22:27:26.238Z,101008.13
2023-01-30T22:29:28.188Z,101015.53
2023-01-30T22:31:31.927Z,101003.91
2023-01-30T22:33:34.575Z,101014.69
2023-01-30T22:35:36.140Z,101025.47
2023-01-30T22:37:38.394Z,101030.00
2023-01-30T22:39:43.932Z,101033.53
2023-01-30T22:41:45.480Z,101038.09
2023-01-30T22:43:50.959Z,101039.09
2023-01-30T22:45:52.685Z,101035.53
2023-01-30T22:47:54.346Z,101039.09
2023-01-30T22:49:55.927Z,101039.41
2023-01-30T22:51:57.501Z,101052.03
2023-01-30T22:54:01.005Z,101044.13
2023-01-30T22:56:08.721Z,101040.59
2023-01-30T22:58:10.515Z,101056.91
2023-01-30T23:00:12.682Z,101057.03
2023-01-30T23:02:14.511Z,101059.72
2023-01-30T23:04:18.532Z,101058.91
2023-01-30T23:06:20.628Z,101066.16
2023-01-30T23:08:22.511Z,101061.91
2023-01-30T23:10:24.586Z,101064.59
2023-01-30T23:12:29.651Z,101073.84
2023-01-30T23:14:33.633Z,101077.53
2023-01-30T23:16:37.783Z,101080.72
2023-01-30T23:18:39.582Z,101102.09
2023-01-30T23:20:41.374Z,101091.50
2023-01-30T23:22:43.077Z,101087.97
2023-01-30T23:24:45.064Z,101095.34
2023-01-30T23:26:49.407Z,101083.91
2023-01-30T23:28:52.611Z,101098.34
2023-01-30T23:30:54.269Z,101096.66
2023-01-30T23:32:56.252Z,101102.22
2023-01-30T23:34:58.016Z,101104.06
2023-01-30T23:36:59.548Z,101105.91
2023-01-30T23:39:01.330Z,101109.59
2023-01-30T23:41:12.253Z,101105.22
2023-01-30T23:43:14.742Z,101096.44
2023-01-30T23:45:18.233Z,101106.38
2023-01-30T23:47:19.880Z,101109.38
2023-01-30T23:49:21.681Z,101106.88
2023-01-30T23:51:25.391Z,101105.00
2023-01-30T23:53:27.101Z,101114.75